Time;durP1;ratioP1;P1;durP2;ratioP2;P2;SDS_P1;SDS_P2;PMS_P1;PMS_P2;Temp;Humidity;BMP_temperature;BMP_pressure;BME280_temperature;BME280_humidity;BME280_pressure;Samples;Min_cycle;Max_cycle;Signal;HPM_P1;HPM_P2
2022/09/16 00:02:15;;;;;;;4.55;1.30;;;;;;;15.02;77.90;100472.47;5062041;28;20055;-75
2022/09/16 00:04:40;;;;;;;5.70;1.50;;;;;;;14.99;78.18;100475.94;5058852;28;20039;-75
2022/09/16 00:07:06;;;;;;;3.67;1.40;;;;;;;14.97;78.11;100473.44;5059794;28;20426;-75
2022/09/16 00:09:31;;;;;;;4.95;1.58;;;;;;;14.94;78.31;100468.50;5076619;28;20035;-75
2022/09/16 00:11:57;;;;;;;3.55;1.30;;;;;;;14.92;78.23;100473.59;5081808;28;20028;-75
2022/09/16 00:14:22;;;;;;;4.28;1.70;;;;;;;14.90;78.21;100472.25;5045255;28;20084;-75
2022/09/16 00:16:47;;;;;;;5.13;1.40;;;;;;;14.88;78.12;100475.41;5078496;28;20388;-75
2022/09/16 00:19:13;;;;;;;4.40;1.30;;;;;;;14.89;78.15;100474.25;5092786;28;20024;-75
2022/09/16 00:21:38;;;;;;;4.60;1.40;;;;;;;14.86;78.05;100474.06;5059597;28;20055;-75
2022/09/16 00:24:04;;;;;;;7.13;1.90;;;;;;;14.85;77.99;100470.47;5059598;28;20029;-75
2022/09/16 00:26:30;;;;;;;3.58;1.52;;;;;;;14.84;78.27;100462.38;5078325;28;20074;-75
2022/09/16 00:28:55;;;;;;;5.85;1.67;;;;;;;14.77;78.41;100474.03;5078233;28;20028;-75
2022/09/16 00:31:20;;;;;;;2.85;1.35;;;;;;;14.74;78.57;100469.94;5061540;28;20035;-75
2022/09/16 00:33:46;;;;;;;4.28;1.55;;;;;;;14.71;78.26;100469.75;5058089;28;20020;-75
2022/09/16 00:36:13;;;;;;;5.35;1.42;;;;;;;14.67;78.39;100468.75;5078383;28;20396;-75
2022/09/16 00:38:39;;;;;;;6.13;1.58;;;;;;;14.63;78.51;100470.53;5078216;28;20028;-75
2022/09/16 00:41:05;;;;;;;4.07;1.27;;;;;;;14.60;78.41;100471.16;5078322;28;20032;-75
2022/09/16 00:44:06;;;;;;;6.32;1.92;;;;;;;14.58;78.01;100470.69;5078165;28;20032;-75
2022/09/16 00:46:32;;;;;;;6.05;1.85;;;;;;;14.51;78.42;100476.69;4981524;28;20117;-75
2022/09/16 00:49:00;;;;;;;4.25;1.40;;;;;;;14.47;78.49;100472.91;4982226;28;20124;-75
2022/09/16 00:51:25;;;;;;;5.47;1.50;;;;;;;14.42;78.51;100475.81;4957893;28;20503;-75
2022/09/16 00:53:55;;;;;;;4.18;1.33;;;;;;;14.39;78.61;100471.69;4964148;28;20055;-75
2022/09/16 00:56:22;;;;;;;4.93;1.38;;;;;;;14.36;78.83;100474.31;4942611;28;20027;-75
2022/09/16 00:59:01;;;;;;;3.42;1.27;;;;;;;14.30;78.67;100465.25;4985072;28;20101;-75
2022/09/16 01:01:28;;;;;;;4.38;1.65;;;;;;;14.26;78.89;100475.41;4983916;28;20058;-75
2022/09/16 01:03:55;;;;;;;7.00;1.67;;;;;;;14.21;79.06;100475.56;4955831;28;20030;-75
2022/09/16 01:06:20;;;;;;;6.82;1.60;;;;;;;14.17;79.06;100477.31;4968778;28;20124;-75
2022/09/16 01:08:46;;;;;;;4.60;1.35;;;;;;;14.13;79.46;100476.31;4992335;28;20042;-75
2022/09/16 01:11:11;;;;;;;4.38;1.83;;;;;;;14.10;79.48;100480.56;4964632;28;20045;-75
2022/09/16 01:13:37;;;;;;;4.78;1.38;;;;;;;14.05;79.68;100477.91;4952480;28;20043;-75
2022/09/16 01:16:28;;;;;;;4.80;1.55;;;;;;;14.00;79.74;100472.44;4990629;28;20042;-75
2022/09/16 01:18:57;;;;;;;5.47;1.55;;;;;;;13.99;79.55;100476.41;4960055;28;20113;-75
2022/09/16 01:21:43;;;;;;;4.38;1.63;;;;;;;13.95;79.92;100465.03;5049181;28;20400;-75
2022/09/16 01:24:50;;;;;;;4.97;1.65;;;;;;;13.94;79.67;100477.34;5074545;28;20039;-75
2022/09/16 01:27:46;;;;;;;7.43;1.60;;;;;;;13.87;79.79;100474.16;5019396;28;20037;-75
2022/09/16 01:31:05;;;;;;;4.95;1.50;;;;;;;13.85;79.64;100479.25;5007154;28;20065;-75
2022/09/16 01:33:53;;;;;;;4.07;1.33;;;;;;;13.80;79.84;100473.78;5000887;28;20035;-75
2022/09/16 01:36:27;;;;;;;4.85;1.40;;;;;;;13.78;79.75;100481.66;5005941;28;20049;-75
2022/09/16 01:39:06;;;;;;;7.18;1.65;;;;;;;13.75;80.03;100476.69;5021918;28;20041;-75
2022/09/16 01:41:55;;;;;;;6.50;1.67;;;;;;;13.71;80.17;100475.69;5019218;28;20046;-76
2022/09/16 01:44:25;;;;;;;7.72;1.63;;;;;;;13.68;80.19;100476.28;5008627;28;20108;-75
2022/09/16 01:47:17;;;;;;;6.32;1.55;;;;;;;13.66;80.22;100473.84;5004690;28;20034;-75
2022/09/16 01:49:52;;;;;;;6.10;1.48;;;;;;;13.58;80.04;100478.19;4999593;28;20515;-76
2022/09/16 01:52:24;;;;;;;3.80;1.38;;;;;;;13.56;80.47;100474.06;5015230;28;20041;-76
2022/09/16 01:55:03;;;;;;;5.68;1.40;;;;;;;13.51;80.37;100477.81;5016116;28;20049;-76
2022/09/16 01:57:38;;;;;;;5.93;1.30;;;;;;;13.46;80.50;100475.16;4989959;28;20037;-76
2022/09/16 02:00:09;;;;;;;5.55;1.67;;;;;;;13.43;80.63;100473.00;5024410;28;20038;-76
2022/09/16 02:02:41;;;;;;;4.95;1.70;;;;;;;13.40;80.52;100470.84;5080437;28;20058;-76
2022/09/16 02:05:28;;;;;;;7.10;2.08;;;;;;;13.35;80.75;100463.41;5096241;28;20035;-76
2022/09/16 02:08:00;;;;;;;4.10;1.45;;;;;;;13.33;80.76;100473.22;5012205;28;20515;-76
2022/09/16 02:10:28;;;;;;;5.57;1.33;;;;;;;13.28;81.07;100474.13;5043111;28;20083;-76
2022/09/16 02:12:56;;;;;;;4.88;1.60;;;;;;;13.28;81.06;100467.75;5080940;28;20024;-76
2022/09/16 02:15:22;;;;;;;5.60;1.83;;;;;;;13.22;81.26;100469.78;5036600;28;20028;-76
2022/09/16 02:17:52;;;;;;;4.43;1.45;;;;;;;13.20;81.39;100458.13;5062510;28;20050;-76
2022/09/16 02:20:19;;;;;;;5.93;1.75;;;;;;;13.14;81.74;100474.13;5030664;28;20055;-76
2022/09/16 02:22:52;;;;;;;4.75;1.67;;;;;;;13.14;81.49;100474.13;5061776;28;20020;-76
2022/09/16 02:25:17;;;;;;;4.50;1.30;;;;;;;13.09;81.56;100476.22;5054040;28;20032;-76
2022/09/16 02:27:43;;;;;;;4.20;1.52;;;;;;;13.08;81.53;100477.34;5062033;28;20104;-76
2022/09/16 02:30:10;;;;;;;3.70;1.38;;;;;;;13.05;82.04;100478.81;5063632;28;20028;-76
2022/09/16 02:32:45;;;;;;;4.35;1.50;;;;;;;13.02;82.19;100473.03;5047427;28;20472;-76
2022/09/16 02:35:12;;;;;;;4.53;1.65;;;;;;;13.02;82.42;100475.81;5063921;28;20031;-76
2022/09/16 02:37:41;;;;;;;3.22;1.50;;;;;;;13.00;82.63;100475.28;5052610;28;20029;-76
2022/09/16 02:40:16;;;;;;;6.25;1.63;;;;;;;13.04;82.29;100468.81;5058453;28;20038;-76
2022/09/16 02:42:41;;;;;;;5.25;1.70;;;;;;;13.01;82.72;100468.56;5056917;28;20050;-76
2022/09/16 02:45:07;;;;;;;6.35;1.75;;;;;;;13.02;83.27;100475.81;5060404;28;20036;-76
2022/09/16 02:47:45;;;;;;;3.88;1.63;;;;;;;13.02;83.36;100468.28;5062923;28;20497;-76
2022/09/16 02:50:14;;;;;;;4.20;1.60;;;;;;;13.02;83.49;100473.84;5093445;28;20497;-76
2022/09/16 02:53:47;;;;;;;3.92;1.60;;;;;;;13.06;83.78;100471.25;5075713;28;20024;-76
2022/09/16 02:56:17;;;;;;;2.30;1.10;;;;;;;13.10;83.97;100472.31;4946240;28;20042;-76
2022/09/16 02:58:43;;;;;;;7.75;1.75;;;;;;;13.12;83.74;100470.84;4987832;28;20058;-76
2022/09/16 03:01:10;;;;;;;3.70;1.60;;;;;;;13.15;84.39;100469.41;5029051;28;20412;-76
2022/09/16 03:03:36;;;;;;;5.50;1.45;;;;;;;13.15;84.11;100469.41;5063109;28;20032;-76
2022/09/16 03:06:07;;;;;;;5.63;1.30;;;;;;;13.17;84.45;100462.34;5063150;28;20024;-76
2022/09/16 03:08:33;;;;;;;3.22;1.30;;;;;;;13.22;84.29;100457.81;5056787;28;20101;-75
2022/09/16 03:11:03;;;;;;;4.75;1.48;;;;;;;13.30;84.50;100463.50;5060832;28;20052;-75
2022/09/16 03:14:05;;;;;;;6.35;1.58;;;;;;;13.29;84.31;100461.03;5063266;28;20389;-76
2022/09/16 03:16:36;;;;;;;3.80;1.30;;;;;;;13.28;84.74;100451.84;5074909;28;20130;-75
2022/09/16 03:19:07;;;;;;;5.15;1.60;;;;;;;13.31;84.40;100462.34;5057320;28;20089;-77
2022/09/16 03:22:01;;;;;;;5.03;1.65;;;;;;;13.36;84.77;100465.03;5063840;28;20036;-76
2022/09/16 03:24:34;;;;;;;3.88;1.42;;;;;;;13.37;85.06;100461.13;5056563;28;20094;-75
2022/09/16 03:27:05;;;;;;;6.20;1.50;;;;;;;13.40;84.94;100468.03;5059503;28;20499;-76
2022/09/16 03:29:35;;;;;;;4.43;1.38;;;;;;;13.35;86.66;100463.41;5061047;28;20397;-76
2022/09/16 03:32:16;;;;;;;5.00;1.63;;;;;;;13.43;85.72;100469.34;5052365;28;20082;-76
2022/09/16 03:34:53;;;;;;;2.58;1.20;;;;;;;13.45;85.62;100461.50;5060767;28;20108;-76
2022/09/16 03:37:19;;;;;;;4.82;1.70;;;;;;;13.48;85.57;100463.66;5056637;28;20040;-76
2022/09/16 03:39:52;;;;;;;4.03;1.60;;;;;;;13.48;85.24;100464.47;5062258;28;20032;-76
2022/09/16 03:42:18;;;;;;;8.13;1.98;;;;;;;13.53;85.77;100458.78;5059837;28;20088;-76
2022/09/16 03:44:43;;;;;;;3.25;1.38;;;;;;;13.58;85.06;100460.63;5047607;28;20597;-76
2022/09/16 03:47:09;;;;;;;3.22;1.48;;;;;;;13.59;85.28;100462.28;5029129;28;20081;-76
2022/09/16 03:49:35;;;;;;;4.25;1.17;;;;;;;13.60;85.13;100458.38;5061702;28;20036;-76
2022/09/16 03:52:00;;;;;;;5.20;1.52;;;;;;;13.65;85.25;100466.63;5045906;28;20357;-76
2022/09/16 03:54:26;;;;;;;3.58;1.67;;;;;;;13.64;85.37;100460.19;5062219;28;20024;-76
2022/09/16 03:56:51;;;;;;;7.00;1.60;;;;;;;13.67;85.00;100464.31;5074544;28;20085;-75
2022/09/16 03:59:17;;;;;;;4.90;1.70;;;;;;;13.68;85.04;100467.94;5074611;28;20070;-75
2022/09/16 04:01:42;;;;;;;5.40;1.40;;;;;;;13.68;84.65;100470.72;5060463;28;20052;-76
2022/09/16 04:04:08;;;;;;;5.85;1.70;;;;;;;13.75;84.59;100471.13;5078861;28;20100;-76
2022/09/16 04:06:34;;;;;;;3.83;1.33;;;;;;;13.74;84.99;100475.06;5061785;28;20051;-76
2022/09/16 04:09:03;;;;;;;4.45;1.60;;;;;;;13.74;85.12;100470.28;5097077;28;20442;-76
2022/09/16 04:11:30;;;;;;;4.10;1.30;;;;;;;13.74;84.81;100478.66;5061894;28;20039;-76
2022/09/16 04:13:56;;;;;;;6.90;1.80;;;;;;;13.75;85.06;100480.31;5052787;28;20030;-76
2022/09/16 04:16:22;;;;;;;4.88;1.30;;;;;;;13.74;84.45;100480.63;5028784;28;20036;-76
2022/09/16 04:18:47;;;;;;;5.97;1.75;;;;;;;13.78;84.83;100482.47;5078574;28;20024;-76
2022/09/16 04:21:13;;;;;;;4.35;1.40;;;;;;;13.78;85.04;100476.88;5050206;28;20473;-76
2022/09/16 04:23:38;;;;;;;2.85;1.40;;;;;;;13.78;84.46;100481.66;5028299;28;20027;-76
2022/09/16 04:26:04;;;;;;;3.85;1.58;;;;;;;13.79;84.59;100483.28;5058964;28;20025;-76
2022/09/16 04:28:30;;;;;;;5.72;1.80;;;;;;;13.83;84.78;100489.91;5059649;28;20028;-76
2022/09/16 04:31:02;;;;;;;5.10;1.38;;;;;;;13.79;84.88;100488.88;5061775;28;20083;-76
2022/09/16 04:33:32;;;;;;;6.47;1.88;;;;;;;13.83;84.90;100485.13;5078324;28;20405;-76
2022/09/16 04:36:09;;;;;;;2.85;1.40;;;;;;;13.84;84.76;100485.94;5062151;28;20499;-76
2022/09/16 04:38:35;;;;;;;4.75;1.60;;;;;;;13.83;85.20;100485.13;5061092;28;20034;-76
2022/09/16 04:41:02;;;;;;;5.55;1.50;;;;;;;13.85;85.14;100491.22;5078470;28;20115;-76
2022/09/16 04:43:27;;;;;;;7.40;1.75;;;;;;;13.83;85.17;100487.09;5038107;28;20111;-76
2022/09/16 04:45:53;;;;;;;6.85;1.98;;;;;;;13.85;85.34;100498.78;5054715;28;20032;-76
2022/09/16 04:48:18;;;;;;;7.18;2.03;;;;;;;13.86;85.40;100498.47;5056836;28;20024;-76
2022/09/16 04:50:44;;;;;;;3.25;1.30;;;;;;;13.87;85.16;100496.47;5051348;28;20024;-76
2022/09/16 04:53:09;;;;;;;5.32;1.45;;;;;;;13.85;85.42;100504.38;5077966;28;20032;-76
2022/09/16 04:55:36;;;;;;;6.78;1.83;;;;;;;13.88;85.56;100502.91;5061121;28;20024;-76
2022/09/16 04:58:01;;;;;;;5.55;1.40;;;;;;;13.85;86.01;100498.78;5096318;28;20036;-76
2022/09/16 05:00:27;;;;;;;4.05;1.75;;;;;;;13.88;85.55;100503.75;5057867;28;20101;-76
2022/09/16 05:02:53;;;;;;;7.68;2.25;;;;;;;13.85;86.32;100504.38;5077680;28;20032;-76
2022/09/16 05:05:19;;;;;;;6.70;1.98;;;;;;;13.87;85.75;100502.06;5078204;28;20540;-76
2022/09/16 05:07:45;;;;;;;6.50;1.88;;;;;;;13.85;86.11;100504.38;5060815;28;20036;-76
2022/09/16 05:10:10;;;;;;;5.70;2.00;;;;;;;13.91;86.30;100508.69;5044159;28;20476;-76
2022/09/16 05:12:36;;;;;;;6.70;2.42;;;;;;;13.91;86.50;100505.06;5077858;28;20032;-76
2022/09/16 05:15:02;;;;;;;6.68;2.03;;;;;;;13.85;86.54;100504.38;5057500;28;20203;-76
2022/09/16 05:17:29;;;;;;;6.70;2.10;;;;;;;13.85;86.74;100507.16;5060013;28;20098;-75
2022/09/16 05:19:54;;;;;;;3.80;1.83;;;;;;;13.86;86.63;100506.84;5056874;28;20500;-76
2022/09/16 05:22:19;;;;;;;6.95;1.92;;;;;;;13.84;86.64;100513.88;5074691;28;20036;-75
2022/09/16 05:24:45;;;;;;;10.27;2.10;;;;;;;13.85;86.39;100515.53;5059626;28;20035;-75
2022/09/16 05:27:11;;;;;;;6.30;1.98;;;;;;;13.84;86.80;100525.84;5077181;28;20031;-75
2022/09/16 05:29:36;;;;;;;5.88;2.10;;;;;;;13.86;86.25;100534.75;5041106;28;20044;-75
2022/09/16 05:32:02;;;;;;;6.45;1.85;;;;;;;13.84;86.40;100531.44;5059783;28;20098;-76
2022/09/16 05:34:27;;;;;;;7.53;2.22;;;;;;;13.86;86.15;100529.16;5045784;28;20032;-75
2022/09/16 05:36:54;;;;;;;6.50;2.33;;;;;;;13.85;86.54;100526.72;5073764;28;21402;-75
2022/09/16 05:39:20;;;;;;;8.13;2.10;;;;;;;13.77;87.83;100530.25;5029500;28;20029;-75
2022/09/16 05:41:46;;;;;;;7.38;1.77;;;;;;;13.83;86.40;100538.19;5063435;28;20035;-75
2022/09/16 05:44:12;;;;;;;5.55;1.63;;;;;;;13.84;86.12;100539.00;5043634;28;20656;-76
2022/09/16 05:46:39;;;;;;;7.43;2.20;;;;;;;13.83;86.13;100546.53;5081704;28;20046;-76
2022/09/16 05:49:05;;;;;;;8.07;2.05;;;;;;;13.84;85.86;100542.59;5080481;28;20077;-76
2022/09/16 05:51:30;;;;;;;5.22;1.58;;;;;;;13.79;86.47;100545.53;5081477;28;20028;-76
2022/09/16 05:53:57;;;;;;;5.93;1.58;;;;;;;13.77;86.74;100542.22;5060282;28;20024;-76
2022/09/16 05:56:26;;;;;;;5.95;1.75;;;;;;;13.82;86.07;100549.66;5081805;28;20039;-75
2022/09/16 05:58:52;;;;;;;6.88;1.67;;;;;;;13.85;85.46;100554.63;5045216;28;20381;-76
2022/09/16 06:01:19;;;;;;;4.57;1.38;;;;;;;13.83;85.53;100554.91;5053266;28;20136;-76
2022/09/16 06:03:45;;;;;;;5.78;1.48;;;;;;;13.85;85.25;100546.25;5079069;28;20033;-75
2022/09/16 06:06:14;;;;;;;3.95;1.42;;;;;;;13.84;85.51;100564.13;5037966;28;20480;-76
2022/09/16 06:08:40;;;;;;;4.40;1.73;;;;;;;13.85;85.21;100554.63;5044543;28;20040;-75
2022/09/16 06:11:07;;;;;;;5.80;1.60;;;;;;;13.86;85.11;100561.84;5041901;28;20032;-75
2022/09/16 06:13:33;;;;;;;3.22;1.30;;;;;;;13.85;85.16;100561.03;5044727;28;20441;-76
2022/09/16 06:15:58;;;;;;;5.68;1.80;;;;;;;13.85;85.40;100565.78;5027516;28;20051;-73
2022/09/16 06:18:25;;;;;;;8.75;1.98;;;;;;;13.88;84.98;100565.16;5027684;28;20075;-69
2022/09/16 06:20:50;;;;;;;4.75;1.50;;;;;;;13.87;85.18;100569.06;5027689;28;20056;-76
2022/09/16 06:23:16;;;;;;;6.22;1.42;;;;;;;13.84;84.99;100566.91;5024634;28;20036;-75
2022/09/16 06:25:42;;;;;;;5.65;1.58;;;;;;;13.91;84.91;100570.09;5076924;28;20037;-75
2022/09/16 06:28:08;;;;;;;7.80;1.52;;;;;;;13.91;84.67;100563.69;5026219;28;20025;-75
2022/09/16 06:30:34;;;;;;;5.43;1.40;;;;;;;13.86;85.03;100567.44;5043259;28;20400;-75
2022/09/16 06:33:00;;;;;;;5.25;1.63;;;;;;;13.85;84.97;100566.59;5044352;28;20032;-76
2022/09/16 06:35:25;;;;;;;4.65;1.20;;;;;;;13.92;84.42;100565.34;5042369;28;20103;-75
2022/09/16 06:37:50;;;;;;;8.80;1.60;;;;;;;13.94;84.18;100574.25;5008011;28;20462;-75
2022/09/16 06:40:16;;;;;;;6.00;1.45;;;;;;;13.97;84.07;100573.59;5027169;28;20086;-76
2022/09/16 06:42:42;;;;;;;6.15;1.63;;;;;;;14.02;83.49;100570.69;5025218;28;20039;-76
2022/09/16 06:45:07;;;;;;;3.58;1.23;;;;;;;14.02;83.55;100570.69;5042850;28;20029;-67
2022/09/16 06:47:33;;;;;;;4.15;1.40;;;;;;;14.03;83.89;100561.97;5078566;28;20078;-67
2022/09/16 06:49:59;;;;;;;6.35;1.30;;;;;;;14.09;83.78;100569.09;5076345;28;20029;-66
2022/09/16 06:52:25;;;;;;;4.68;1.15;;;;;;;14.15;83.15;100571.75;4998412;28;20040;-67
2022/09/16 06:54:50;;;;;;;4.95;2.03;;;;;;;14.18;82.83;100571.13;5008414;28;20742;-66
2022/09/16 06:57:18;;;;;;;4.85;1.65;;;;;;;14.22;82.55;100564.59;5043574;28;20381;-67
2022/09/16 06:59:44;;;;;;;4.97;1.60;;;;;;;14.26;82.09;100571.22;5038196;28;20433;-67
2022/09/16 07:02:10;;;;;;;3.80;1.30;;;;;;;14.27;81.08;100569.25;5026054;28;20092;-69
2022/09/16 07:04:36;;;;;;;5.45;1.27;;;;;;;14.35;81.53;100568.50;5027024;28;20028;-68
2022/09/16 07:07:03;;;;;;;3.25;1.10;;;;;;;14.39;81.12;100572.28;5043957;28;20060;-67
2022/09/16 07:09:29;;;;;;;5.63;1.13;;;;;;;14.45;80.58;100581.34;5024770;28;20025;-68
2022/09/16 07:11:55;;;;;;;6.65;1.20;;;;;;;14.48;80.44;100584.34;5021255;28;20028;-68
2022/09/16 07:14:21;;;;;;;8.70;1.30;;;;;;;14.47;79.33;100588.28;5048487;28;20488;-68
2022/09/16 07:16:46;;;;;;;4.75;1.02;;;;;;;14.50;79.88;100576.47;5043037;28;20039;-68
2022/09/16 07:19:12;;;;;;;3.80;1.00;;;;;;;14.56;79.96;100591.16;5022956;28;20021;-68
2022/09/16 07:21:37;;;;;;;4.93;0.90;;;;;;;14.59;79.76;100584.94;5059839;28;20036;-68
2022/09/16 07:24:03;;;;;;;7.05;1.70;;;;;;;14.61;79.62;100590.22;5034885;28;20044;-71
2022/09/16 07:26:33;;;;;;;9.32;1.95;;;;;;;14.66;80.04;100585.31;5043396;28;20060;-68
2022/09/16 07:28:59;;;;;;;12.23;3.45;;;;;;;14.71;80.53;100587.16;5039066;28;20060;-68
2022/09/16 07:31:26;;;;;;;6.75;1.50;;;;;;;14.73;80.31;100588.47;5053612;28;20037;-68
2022/09/16 07:33:53;;;;;;;5.13;1.42;;;;;;;14.75;79.54;100594.56;5042801;28;20402;-68
2022/09/16 07:36:26;;;;;;;7.03;1.05;;;;;;;14.77;79.06;100599.84;5024212;28;20033;-68
2022/09/16 07:38:51;;;;;;;5.47;1.20;;;;;;;14.75;78.79;100594.56;5042783;28;20040;-68
2022/09/16 07:41:18;;;;;;;4.95;1.00;;;;;;;14.79;78.67;100593.91;5033700;28;20033;-68
2022/09/16 07:43:44;;;;;;;4.97;1.20;;;;;;;14.81;78.48;100605.63;5041765;28;20028;-67
2022/09/16 07:46:11;;;;;;;2.80;1.05;;;;;;;14.80;78.21;100601.19;5007473;28;20050;-68
2022/09/16 07:48:36;;;;;;;3.08;0.90;;;;;;;14.81;77.87;100609.22;5035609;28;20429;-68
2022/09/16 07:51:05;;;;;;;3.60;1.15;;;;;;;14.81;78.03;100614.81;5042741;28;20035;-67
2022/09/16 07:53:31;;;;;;;4.68;1.10;;;;;;;14.77;77.46;100608.25;5038360;28;20025;-68
2022/09/16 07:56:03;;;;;;;2.92;1.08;;;;;;;14.79;77.18;100611.50;5036725;28;20425;-68
2022/09/16 07:58:29;;;;;;;7.68;1.25;;;;;;;14.79;77.11;100605.94;5055661;28;20114;-67
2022/09/16 08:00:54;;;;;;;3.97;1.05;;;;;;;14.80;76.93;100618.78;5065984;28;20052;-67
2022/09/16 08:03:20;;;;;;;6.10;1.40;;;;;;;14.80;76.56;100621.56;5078973;28;20040;-67
2022/09/16 08:05:45;;;;;;;5.68;1.00;;;;;;;14.84;76.63;100628.16;5062311;28;20374;-67
2022/09/16 08:08:11;;;;;;;6.00;1.33;;;;;;;14.82;76.42;100626.84;5029317;28;20024;-67
2022/09/16 08:10:36;;;;;;;5.13;1.40;;;;;;;14.84;76.64;100630.97;5062095;28;20024;-67
2022/09/16 08:13:03;;;;;;;6.43;0.93;;;;;;;14.85;76.30;100632.63;5026811;28;20031;-70
2022/09/16 08:15:29;;;;;;;8.95;1.23;;;;;;;14.89;76.40;100636.41;5059898;28;20396;-71
2022/09/16 08:17:54;;;;;;;9.45;1.40;;;;;;;14.89;76.11;100638.41;5045600;28;20035;-77
2022/09/16 08:20:20;;;;;;;5.00;1.08;;;;;;;14.92;75.88;100635.78;5078795;28;20035;-76
2022/09/16 08:22:46;;;;;;;5.22;0.90;;;;;;;14.95;75.09;100648.28;5059942;28;20071;-76
2022/09/16 08:25:11;;;;;;;7.25;1.55;;;;;;;14.97;75.26;100646.84;5061881;28;20076;-76
2022/09/16 08:27:37;;;;;;;4.47;1.15;;;;;;;15.01;75.01;100646.19;5039265;28;20024;-76
2022/09/16 08:30:03;;;;;;;4.43;1.23;;;;;;;15.00;74.06;100644.56;5082051;28;20087;-76
2022/09/16 08:32:29;;;;;;;5.10;1.05;;;;;;;15.04;74.38;100663.16;5058463;28;20048;-76
2022/09/16 08:34:55;;;;;;;2.40;1.20;;;;;;;15.06;74.51;100651.66;5061845;28;20097;-75
2022/09/16 08:37:20;;;;;;;8.32;1.35;;;;;;;15.09;74.64;100659.41;5078526;28;20485;-75
2022/09/16 08:39:47;;;;;;;4.78;1.20;;;;;;;15.10;73.87;100661.88;5035111;28;20029;-76
2022/09/16 08:42:41;;;;;;;4.47;0.75;;;;;;;15.18;74.27;100641.53;5059366;28;20043;-75
2022/09/16 08:45:19;;;;;;;4.72;0.90;;;;;;;15.24;73.34;100656.19;5075244;28;20084;-76
2022/09/16 08:48:12;;;;;;;7.30;1.20;;;;;;;15.33;73.50;100662.66;5061965;28;20490;-75
2022/09/16 08:50:40;;;;;;;4.63;1.15;;;;;;;15.47;73.83;100661.72;5060507;28;20070;-74
2022/09/16 08:53:35;;;;;;;10.38;1.67;;;;;;;15.61;74.21;100654.84;5044895;28;20045;-75
2022/09/16 08:56:06;;;;;;;5.55;1.20;;;;;;;15.77;73.71;100655.25;5060315;28;20032;-74
2022/09/16 08:58:42;;;;;;;4.43;0.85;;;;;;;15.97;72.39;100661.41;5077822;28;20032;-75
2022/09/16 09:01:22;;;;;;;6.28;1.58;;;;;;;16.21;75.15;100661.75;5052654;28;20135;-72
2022/09/16 09:03:47;;;;;;;13.15;3.00;;;;;;;16.42;74.43;100666.72;5035422;28;20036;-80
2022/09/16 09:06:38;;;;;;;9.90;1.70;;;;;;;16.61;72.34;100660.78;5020019;28;20581;-81
2022/09/16 09:09:15;;;;;;;8.18;1.27;;;;;;;16.77;71.57;100661.94;5070848;28;20033;-73
2022/09/16 09:12:07;;;;;;;6.63;1.33;;;;;;;16.94;69.39;100673.13;5074108;28;20032;-73
2022/09/16 09:14:50;;;;;;;6.32;1.33;;;;;;;17.04;62.95;100680.34;5059743;28;20041;-73
2022/09/16 09:17:37;;;;;;;3.17;0.70;;;;;;;17.07;59.09;100674.06;5053944;28;20064;-72
2022/09/16 09:20:06;;;;;;;5.38;1.10;;;;;;;17.16;58.06;100680.50;5056554;28;20078;-72
2022/09/16 09:23:07;;;;;;;3.40;0.73;;;;;;;17.20;57.29;100691.88;5074933;28;20103;-72
2022/09/16 09:25:44;;;;;;;5.03;0.70;;;;;;;17.33;56.74;100676.00;5022145;28;20056;-71
2022/09/16 09:28:28;;;;;;;5.80;0.60;;;;;;;17.42;58.80;100671.19;5039725;28;20449;-71
2022/09/16 09:31:18;;;;;;;3.92;0.80;;;;;;;17.49;57.22;100670.63;5075297;28;20028;-74
2022/09/16 09:33:46;;;;;;;11.38;4.10;;;;;;;17.58;57.38;100680.69;5072824;28;20109;-70
2022/09/16 09:36:16;;;;;;;16.10;4.70;;;;;;;17.70;59.77;100676.34;5075705;28;20039;-70
2022/09/16 09:39:00;;;;;;;2.28;0.50;;;;;;;17.68;51.34;100682.28;5057629;28;20032;-71
2022/09/16 09:41:49;;;;;;;4.57;0.60;;;;;;;17.73;51.08;100681.28;5073779;28;20036;-70
2022/09/16 09:44:20;;;;;;;1.80;0.60;;;;;;;17.80;50.69;100676.81;5053935;28;20079;-71
2022/09/16 09:46:48;;;;;;;3.97;0.57;;;;;;;17.88;50.33;100683.53;5056360;28;20048;-72
2022/09/16 09:49:19;;;;;;;3.72;0.70;;;;;;;17.98;52.84;100699.19;5012640;28;20116;-73
2022/09/16 09:51:48;;;;;;;5.57;0.60;;;;;;;17.91;49.16;100688.47;5023766;28;20035;-71
2022/09/16 09:54:27;;;;;;;2.88;0.57;;;;;;;18.00;50.10;100692.06;5024414;28;20032;-71
2022/09/16 09:56:54;;;;;;;3.33;0.50;;;;;;;17.98;47.31;100705.63;5037059;28;20064;-71
2022/09/16 09:59:51;;;;;;;4.47;0.60;;;;;;;17.95;46.62;100694.25;5041069;28;20078;-72
2022/09/16 10:02:18;;;;;;;2.40;0.50;;;;;;;17.95;46.70;100694.25;5040175;28;20132;-71
2022/09/16 10:04:44;;;;;;;1.33;0.40;;;;;;;18.05;47.03;100694.69;5005079;28;20032;-71
2022/09/16 10:07:11;;;;;;;1.75;0.40;;;;;;;18.13;47.82;100689.31;5037528;28;20040;-71
2022/09/16 10:09:36;;;;;;;3.58;0.63;;;;;;;18.20;46.88;100695.25;5023821;28;20067;-72
2022/09/16 10:12:03;;;;;;;3.55;0.60;;;;;;;18.21;46.23;100702.50;5038382;28;20033;-71
2022/09/16 10:14:35;;;;;;;3.40;0.40;;;;;;;18.19;45.96;100707.63;5057622;28;20029;-72
2022/09/16 10:17:03;;;;;;;0.90;0.47;;;;;;;18.23;46.48;100694.56;5024600;28;20107;-72
2022/09/16 10:19:30;;;;;;;2.17;0.50;;;;;;;18.25;46.15;100690.25;5021136;28;20035;-71
2022/09/16 10:22:20;;;;;;;3.78;0.60;;;;;;;18.31;46.59;100690.88;5027350;28;20025;-73
2022/09/16 10:24:53;;;;;;;2.13;0.40;;;;;;;18.41;46.61;100696.06;5042213;28;20036;-72
2022/09/16 10:27:34;;;;;;;2.88;0.50;;;;;;;18.40;45.28;100702.03;5058965;28;20107;-70
2022/09/16 10:30:17;;;;;;;3.60;0.52;;;;;;;18.38;45.11;100705.19;5044445;28;20083;-71
2022/09/16 10:33:00;;;;;;;4.90;0.70;;;;;;;18.38;44.80;100701.56;5039537;28;20097;-72
2022/09/16 10:35:30;;;;;;;5.28;0.50;;;;;;;18.39;44.97;100698.41;5042792;28;20519;-72
2022/09/16 10:37:58;;;;;;;4.45;0.73;;;;;;;18.48;45.44;100703.97;5027507;28;20082;-71
2022/09/16 10:40:24;;;;;;;1.88;0.68;;;;;;;18.48;45.12;100706.78;5041496;28;20037;-72
2022/09/16 10:42:51;;;;;;;2.13;0.60;;;;;;;18.43;45.27;100702.16;5043962;28;20120;-72
2022/09/16 10:45:28;;;;;;;1.42;0.40;;;;;;;18.41;45.33;100706.50;5024983;28;20033;-72
2022/09/16 10:47:59;;;;;;;3.72;0.45;;;;;;;18.52;45.53;100702.09;5027169;28;20612;-72
2022/09/16 10:50:25;;;;;;;2.92;0.40;;;;;;;18.60;47.38;100697.56;5035490;28;20035;-72
2022/09/16 10:52:50;;;;;;;3.38;0.60;;;;;;;18.69;48.05;100701.13;5027436;28;20388;-72
2022/09/16 10:55:31;;;;;;;3.25;0.60;;;;;;;18.72;49.13;100695.66;5041859;28;20025;-72
2022/09/16 10:58:08;;;;;;;3.67;0.60;;;;;;;18.91;53.83;100700.78;5024928;28;20128;-72
2022/09/16 11:00:39;;;;;;;2.05;0.50;;;;;;;18.93;48.42;100704.09;5040154;28;20328;-72
2022/09/16 11:03:32;;;;;;;2.72;0.57;;;;;;;18.77;45.77;100705.06;5022777;28;20028;-72
2022/09/16 11:06:07;;;;;;;4.90;0.43;;;;;;;18.75;45.66;100699.81;5057164;28;20040;-71
2022/09/16 11:08:57;;;;;;;2.65;0.45;;;;;;;18.85;45.93;100699.34;5059839;28;20036;-72
2022/09/16 11:11:48;;;;;;;3.17;0.50;;;;;;;18.81;45.77;100687.16;5043227;28;20041;-72
2022/09/16 11:14:17;;;;;;;3.55;0.50;;;;;;;18.93;45.77;100697.63;5043598;28;20447;-72
2022/09/16 11:17:01;;;;;;;0.93;0.40;;;;;;;19.03;46.27;100699.19;5043236;28;20047;-73
2022/09/16 11:19:33;;;;;;;3.28;0.50;;;;;;;19.09;46.62;100692.19;5029329;28;20043;-72
2022/09/16 11:22:18;;;;;;;4.78;0.50;;;;;;;19.19;45.66;100688.91;5026895;28;20036;-71
2022/09/16 11:24:52;;;;;;;1.58;0.50;;;;;;;19.18;45.36;100692.91;5039101;28;20351;-72
2022/09/16 11:27:37;;;;;;;2.58;0.60;;;;;;;19.13;44.31;100688.31;5027048;28;20089;-72
2022/09/16 11:30:11;;;;;;;1.77;0.50;;;;;;;19.24;45.09;100688.69;5059507;28;20039;-72
2022/09/16 11:33:01;;;;;;;2.65;0.50;;;;;;;19.31;44.63;100694.59;5038864;28;20394;-72
2022/09/16 11:35:45;;;;;;;2.28;0.60;;;;;;;19.28;44.31;100692.47;5053604;28;20028;-72
2022/09/16 11:38:37;;;;;;;3.63;0.70;;;;;;;19.47;44.68;100696.72;5036500;28;20032;-72
2022/09/16 11:41:12;;;;;;;5.50;0.80;;;;;;;19.43;44.17;100702.22;5058220;28;20040;-72
2022/09/16 11:43:59;;;;;;;2.85;0.60;;;;;;;19.47;44.27;100703.16;5080018;28;20064;-71